Flight Number: EUR2030 Duration: 3:30
Departure: Reykjavik (BIRK) at 18:15 Distance: 1445 Nm
Arrival: Munich Int'l (EDDM) at 21:45 Equipment: B737

Weather Information
Reykjavik, Iceland (BIRK) 64-08N 021-54W 61M May 23, 2018 - 08:00 PM EDT / 2018.05.24 0000 UTC
Wind: from the ESE (120 degrees) at 7 MPH (6 KT):0
Visibility: greater than 7 mile(s):0 Temperature: 42 F (6 C) Dew Point: 32 F (0 C) Relative Humidity: 65% Pressure (altimeter): 30.00 in. Hg (1016 hPa)
ob: BIRK 240000Z 12006KT CAVOK 06/00 Q1016 cycle: 0
Sunrise: 03:52 Sunset: 22:56 (UTC)

Munchen, Germany (EDDM) 48-21N 011-47E May 23, 2018 - 08:20 PM EDT / 2018.05.24 0020 UTC
Wind: from the WNW (300 degrees) at 2 MPH (2 KT):0
Visibility: greater than 7 mile(s):0
Sky conditions: mostly cloudy Weather: showers in the vicinity; Cumulonimbus clouds observed Temperature: 59 F (15 C) Dew Point: 55 F (13 C) Relative Humidity: 87% Pressure (altimeter): 30.03 in. Hg (1017 hPa)
ob: EDDM 240020Z 30002KT 9999 VCSH FEW016 SCT030CB BKN100 15/13 Q1017 NOSIG cycle: 0
Sunrise: 03:26 Sunset: 18:53 (UTC)

TAF:2018/05/23 18:27 TAF EDDM 231700Z 2318/2424 VRB03KT 9999 SCT035 PROB30 TEMPO 2318/2323 16012KT 3000 TSRA BKN030CB TEMPO 2323/2409 SHRA BKN010 BKN030CB PROB30 TEMPO 2405/2407 15012KT 3000 TSRA BKN006 BKN020CB PROB40 TEMPO 2409/2416 26015G25KT 3000 TSRAGR BKN012 BKN025CB BECMG 2420/2423 2000 BCFG

Previous Pireps for this route
Date Aircraft Flight time Fuel used Landing rate On time
2013-01-27B7373.10198660No
2014-01-17B73704.3733433-310No
2015-01-02B73703.4818833-179Charter
(pireps marked green are flown by you)

Route map